createdAt,value
2024-02-29T00:00:49.133Z,15.63
2024-02-29T00:03:19.093Z,16.23
2024-02-29T00:05:47.599Z,15.87
2024-02-29T00:08:18.148Z,15.70
2024-02-29T00:10:47.143Z,14.90
2024-02-29T00:13:15.947Z,16.23
2024-02-29T00:15:44.826Z,15.20
2024-02-29T00:18:12.697Z,14.90
2024-02-29T00:20:42.736Z,16.10
2024-02-29T00:23:11.582Z,16.03
2024-02-29T00:25:42.309Z,15.37
2024-02-29T00:28:11.078Z,15.40
2024-02-29T00:30:40.349Z,15.37
2024-02-29T00:33:09.321Z,15.07
2024-02-29T00:35:38.271Z,15.90
2024-02-29T00:38:07.190Z,15.37
2024-02-29T00:40:36.452Z,14.93
2024-02-29T00:43:07.015Z,14.53
2024-02-29T00:45:35.668Z,15.10
2024-02-29T00:48:04.801Z,14.97
2024-02-29T00:50:35.433Z,14.13
2024-02-29T00:53:04.370Z,14.47
2024-02-29T00:55:33.177Z,14.13
2024-02-29T00:58:02.971Z,14.50
2024-02-29T01:00:33.260Z,13.30
2024-02-29T01:03:01.987Z,15.20
2024-02-29T01:05:31.044Z,13.80
2024-02-29T01:07:59.766Z,12.37
2024-02-29T01:10:29.392Z,13.17
2024-02-29T01:12:58.627Z,13.27
2024-02-29T01:15:27.807Z,13.30
2024-02-29T01:17:58.530Z,13.70
2024-02-29T01:20:27.570Z,13.83
2024-02-29T01:22:56.624Z,13.47
2024-02-29T01:25:25.312Z,15.20
2024-02-29T01:27:54.267Z,14.50
2024-02-29T01:30:23.475Z,14.07
2024-02-29T01:32:52.277Z,14.93
2024-02-29T01:35:23.111Z,14.87
2024-02-29T01:37:52.517Z,14.57
2024-02-29T01:40:21.635Z,15.33
2024-02-29T01:42:51.530Z,14.70
2024-02-29T01:45:20.497Z,15.77
2024-02-29T01:47:49.306Z,17.03
2024-02-29T01:50:19.198Z,17.13
2024-02-29T01:52:50.851Z,15.50
2024-02-29T01:55:19.838Z,16.27
2024-02-29T01:57:49.245Z,17.07
2024-02-29T02:00:19.241Z,19.43
2024-02-29T02:02:48.472Z,18.60
2024-02-29T02:05:17.378Z,20.00
2024-02-29T02:07:47.020Z,19.97
2024-02-29T02:10:17.123Z,21.03
2024-02-29T02:12:47.533Z,22.10
2024-02-29T02:15:17.128Z,22.70
2024-02-29T02:17:46.040Z,22.00
2024-02-29T02:20:19.407Z,20.93
2024-02-29T02:22:48.668Z,22.40
2024-02-29T02:25:17.391Z,23.07
2024-02-29T02:27:46.288Z,23.30
2024-02-29T02:30:15.277Z,22.50
2024-02-29T02:32:44.265Z,24.63
2024-02-29T02:35:13.138Z,23.57
2024-02-29T02:37:43.447Z,24.33
2024-02-29T02:40:13.052Z,24.70
2024-02-29T02:42:41.960Z,24.00
2024-02-29T02:45:11.559Z,22.87
2024-02-29T02:47:40.427Z,24.53
2024-02-29T02:50:10.964Z,22.03
2024-02-29T02:52:39.729Z,23.23
2024-02-29T02:55:11.253Z,23.07
2024-02-29T02:57:40.025Z,23.30
2024-02-29T03:00:12.121Z,21.63
2024-02-29T03:02:41.407Z,22.17
2024-02-29T03:05:11.544Z,22.83
2024-02-29T03:07:40.646Z,23.40
2024-02-29T03:10:12.172Z,21.50
2024-02-29T03:12:40.832Z,21.97
2024-02-29T03:15:10.889Z,21.50
2024-02-29T03:17:39.723Z,22.13
2024-02-29T03:20:13.455Z,22.07
2024-02-29T03:22:42.440Z,21.47
2024-02-29T03:25:13.588Z,23.33
2024-02-29T03:27:42.252Z,21.30
2024-02-29T03:30:11.993Z,21.60
2024-02-29T03:32:40.846Z,21.13
2024-02-29T03:35:10.078Z,23.00
2024-02-29T03:37:38.835Z,22.97
2024-02-29T03:40:08.965Z,23.77
2024-02-29T03:42:41.007Z,20.67
2024-02-29T03:45:10.490Z,19.67
2024-02-29T03:47:40.209Z,19.37
2024-02-29T03:50:11.417Z,18.83
2024-02-29T03:52:40.062Z,17.63
2024-02-29T03:55:11.025Z,14.70
2024-02-29T03:57:41.387Z,15.77
2024-02-29T04:00:12.471Z,15.20
2024-02-29T04:02:42.061Z,12.40
2024-02-29T04:05:11.204Z,13.37
2024-02-29T04:07:40.274Z,11.17
2024-02-29T04:10:10.308Z,11.53
2024-02-29T04:12:40.680Z,10.70
2024-02-29T04:15:10.062Z,10.53
2024-02-29T04:17:38.718Z,10.10
2024-02-29T04:20:09.924Z,10.30
2024-02-29T04:22:38.980Z,9.10
2024-02-29T04:25:11.581Z,9.50
2024-02-29T04:27:41.964Z,10.17
2024-02-29T04:30:12.270Z,9.00
2024-02-29T04:32:41.043Z,10.13
2024-02-29T04:35:10.768Z,8.83
2024-02-29T04:37:39.699Z,9.47
2024-02-29T04:40:11.820Z,9.63
2024-02-29T04:42:42.550Z,9.83
2024-02-29T04:45:12.138Z,9.10
2024-02-29T04:47:41.611Z,10.30
2024-02-29T04:50:11.478Z,10.30
2024-02-29T04:52:40.128Z,9.93
2024-02-29T04:55:09.987Z,9.87
2024-02-29T04:57:39.290Z,9.93
2024-02-29T05:00:11.728Z,9.80
2024-02-29T05:02:40.362Z,10.17
2024-02-29T05:05:09.743Z,9.93
2024-02-29T05:07:38.943Z,9.53
2024-02-29T05:10:10.172Z,10.43
2024-02-29T05:12:39.318Z,10.57
2024-02-29T05:15:10.413Z,10.70
2024-02-29T05:17:39.039Z,10.63
2024-02-29T05:20:09.425Z,10.27
2024-02-29T05:22:39.848Z,11.70
2024-02-29T05:25:11.183Z,11.23
2024-02-29T05:27:40.406Z,11.50
2024-02-29T05:30:11.784Z,10.47
2024-02-29T05:32:40.736Z,11.00
2024-02-29T05:35:09.836Z,10.67
2024-02-29T05:37:38.440Z,11.23
2024-02-29T05:40:14.331Z,10.97
2024-02-29T05:42:43.905Z,10.60
2024-02-29T05:45:14.776Z,10.87
2024-02-29T05:47:43.658Z,10.33
2024-02-29T05:50:12.852Z,10.80
2024-02-29T05:52:42.773Z,10.77
2024-02-29T05:55:12.985Z,11.20
2024-02-29T05:57:42.038Z,10.50
2024-02-29T06:00:12.003Z,11.80
2024-02-29T06:02:42.160Z,12.80
2024-02-29T06:05:11.507Z,13.13
2024-02-29T06:07:40.176Z,14.17
2024-02-29T06:10:11.758Z,14.33
2024-02-29T06:12:40.785Z,14.10
2024-02-29T06:15:12.171Z,14.80
2024-02-29T06:17:42.402Z,16.67
2024-02-29T06:20:13.510Z,15.87
2024-02-29T06:22:42.450Z,16.37
2024-02-29T06:25:12.136Z,17.70
2024-02-29T06:27:41.647Z,16.20
2024-02-29T06:30:11.587Z,17.17
2024-02-29T06:32:45.126Z,16.07
2024-02-29T06:35:14.187Z,16.37
2024-02-29T06:37:44.005Z,16.93
2024-02-29T06:40:14.394Z,16.83
2024-02-29T06:42:43.548Z,19.57
2024-02-29T06:45:12.744Z,17.80
2024-02-29T06:47:43.872Z,17.07
2024-02-29T06:50:13.899Z,14.57
2024-02-29T06:52:42.753Z,15.13
2024-02-29T06:55:11.783Z,14.37
2024-02-29T06:57:40.507Z,15.60
2024-02-29T07:00:11.915Z,15.27
2024-02-29T07:02:44.372Z,14.90
2024-02-29T07:05:13.000Z,13.23
2024-02-29T07:07:44.113Z,13.20
2024-02-29T07:10:14.158Z,14.17
2024-02-29T07:12:43.040Z,14.03
2024-02-29T07:15:16.343Z,13.70
2024-02-29T07:17:47.509Z,12.30
2024-02-29T07:20:16.613Z,13.80
2024-02-29T07:22:45.395Z,13.07
2024-02-29T07:25:15.701Z,13.70
2024-02-29T07:27:46.834Z,13.97
2024-02-29T07:30:16.246Z,13.80
2024-02-29T07:32:46.572Z,14.07
2024-02-29T07:35:19.236Z,13.43
2024-02-29T07:37:47.936Z,13.93
2024-02-29T07:40:16.997Z,12.93
2024-02-29T07:42:46.038Z,13.07
2024-02-29T07:45:16.096Z,12.53
2024-02-29T07:47:48.063Z,14.43
2024-02-29T07:50:16.657Z,14.90
2024-02-29T07:52:45.336Z,13.73
2024-02-29T07:55:15.794Z,14.27
2024-02-29T07:57:44.661Z,14.33
2024-02-29T08:00:14.657Z,13.47
2024-02-29T08:02:44.736Z,14.67
2024-02-29T08:05:15.229Z,13.57
2024-02-29T08:07:48.611Z,14.10
2024-02-29T08:10:18.704Z,14.03
2024-02-29T08:12:48.426Z,14.97
2024-02-29T08:15:17.144Z,13.40
2024-02-29T08:17:46.031Z,13.60
2024-02-29T08:20:17.015Z,13.57
2024-02-29T08:22:45.797Z,14.73
2024-02-29T08:25:14.580Z,14.80
2024-02-29T08:27:43.585Z,13.67
2024-02-29T08:30:14.080Z,13.83
2024-02-29T08:32:42.953Z,15.10
2024-02-29T08:35:13.136Z,15.17
2024-02-29T08:37:45.842Z,15.87
2024-02-29T08:40:15.385Z,15.07
2024-02-29T08:42:44.926Z,15.60
2024-02-29T08:45:13.725Z,14.97
2024-02-29T08:47:42.370Z,15.37
2024-02-29T08:50:11.750Z,16.53
2024-02-29T08:52:42.823Z,17.73
2024-02-29T08:55:13.186Z,17.43
2024-02-29T08:57:41.886Z,18.00
2024-02-29T09:00:11.866Z,18.10
2024-02-29T09:02:40.607Z,18.37
2024-02-29T09:05:10.404Z,18.23
2024-02-29T09:07:39.064Z,17.60
2024-02-29T09:10:10.524Z,17.67
2024-02-29T09:12:40.707Z,18.83
2024-02-29T09:15:10.210Z,18.67
2024-02-29T09:17:38.664Z,17.57
2024-02-29T09:20:08.778Z,17.97
2024-02-29T09:22:37.632Z,18.43
2024-02-29T09:25:07.990Z,18.77
2024-02-29T09:27:37.019Z,18.60
2024-02-29T09:30:08.601Z,19.50
2024-02-29T09:32:37.312Z,18.57
2024-02-29T09:35:07.406Z,18.97
2024-02-29T09:37:36.436Z,19.03
2024-02-29T09:40:06.994Z,18.33
2024-02-29T09:42:36.011Z,18.33
2024-02-29T09:45:07.229Z,16.20
2024-02-29T09:47:41.816Z,17.03
2024-02-29T09:50:12.731Z,18.80
2024-02-29T09:52:41.697Z,18.37
2024-02-29T09:55:15.858Z,18.83
2024-02-29T09:57:45.947Z,18.57
2024-02-29T10:00:18.969Z,18.77
2024-02-29T10:02:52.985Z,20.17
2024-02-29T10:05:23.179Z,20.23
2024-02-29T10:07:51.875Z,19.50
2024-02-29T10:10:20.977Z,20.13
2024-02-29T10:12:57.420Z,21.20
2024-02-29T10:15:31.617Z,21.27
2024-02-29T10:18:03.593Z,19.13
2024-02-29T10:20:33.606Z,21.63
2024-02-29T10:23:02.360Z,20.77
2024-02-29T10:25:31.712Z,21.30
2024-02-29T10:28:05.412Z,21.40
2024-02-29T10:30:35.724Z,21.80
2024-02-29T10:33:04.810Z,21.80
2024-02-29T10:35:33.926Z,21.57
2024-02-29T10:38:06.128Z,21.53
2024-02-29T10:40:34.869Z,21.80
2024-02-29T10:43:06.143Z,21.93
2024-02-29T10:45:43.949Z,22.20
2024-02-29T10:48:18.038Z,22.90
2024-02-29T10:50:56.940Z,23.50
2024-02-29T10:53:37.263Z,22.80
2024-02-29T10:56:12.251Z,23.57
2024-02-29T10:58:43.643Z,24.67
2024-02-29T11:01:14.885Z,24.47
2024-02-29T11:03:44.474Z,24.67
2024-02-29T11:06:14.850Z,22.73
2024-02-29T11:08:44.242Z,25.13
2024-02-29T11:11:14.508Z,23.10
2024-02-29T11:13:43.711Z,24.27
2024-02-29T11:16:16.489Z,24.33
2024-02-29T11:18:45.395Z,24.87
2024-02-29T11:21:15.737Z,26.73
2024-02-29T11:23:47.255Z,24.13
2024-02-29T11:26:16.675Z,25.50
2024-02-29T11:28:45.719Z,23.83
2024-02-29T11:31:18.939Z,25.83
2024-02-29T11:33:48.680Z,24.80
2024-02-29T11:36:17.361Z,25.03
2024-02-29T11:38:46.290Z,23.80
2024-02-29T11:41:20.847Z,22.50
2024-02-29T11:43:50.801Z,24.13
2024-02-29T11:46:21.002Z,23.57
2024-02-29T11:48:52.663Z,22.53
2024-02-29T11:51:22.190Z,22.90
2024-02-29T11:53:51.004Z,23.00
2024-02-29T11:56:20.045Z,23.57
2024-02-29T11:58:53.310Z,23.77
2024-02-29T12:01:25.076Z,21.60
2024-02-29T12:03:54.013Z,19.63
2024-02-29T12:06:22.988Z,21.80
2024-02-29T12:08:51.736Z,21.07
2024-02-29T12:11:20.780Z,19.63
2024-02-29T12:13:49.837Z,21.57
2024-02-29T12:16:18.654Z,21.87
2024-02-29T12:18:48.803Z,21.10
2024-02-29T12:21:17.592Z,20.20
2024-02-29T12:23:46.393Z,21.87
2024-02-29T12:26:17.429Z,21.87
2024-02-29T12:28:46.111Z,20.77
2024-02-29T12:31:15.145Z,20.97
2024-02-29T12:33:45.216Z,21.67
2024-02-29T12:36:17.459Z,20.87
2024-02-29T12:38:46.679Z,22.07
2024-02-29T12:41:15.561Z,20.97
2024-02-29T12:43:49.604Z,20.53
2024-02-29T12:46:20.393Z,20.43
2024-02-29T12:48:49.467Z,20.67
2024-02-29T12:51:19.714Z,22.33
2024-02-29T12:53:48.336Z,19.97
2024-02-29T12:56:16.992Z,20.57
2024-02-29T12:58:48.272Z,21.80
2024-02-29T13:01:17.600Z,22.13
2024-02-29T13:03:46.341Z,21.20
2024-02-29T13:06:14.988Z,21.30
2024-02-29T13:08:46.012Z,22.23
2024-02-29T13:11:14.624Z,21.77
2024-02-29T13:13:43.407Z,21.67
2024-02-29T13:16:12.532Z,21.23
2024-02-29T13:18:41.518Z,20.37
2024-02-29T13:21:10.405Z,21.87
2024-02-29T13:23:39.026Z,19.87
2024-02-29T13:26:09.639Z,19.73
2024-02-29T13:28:39.741Z,20.53
2024-02-29T13:31:10.008Z,18.80
2024-02-29T13:33:39.178Z,19.53
2024-02-29T13:36:09.023Z,20.10
2024-02-29T13:38:38.309Z,18.80
2024-02-29T13:41:09.217Z,19.53
2024-02-29T13:43:38.763Z,19.40
2024-02-29T13:46:07.418Z,19.07
2024-02-29T13:48:36.481Z,19.77
2024-02-29T13:51:07.012Z,17.60
2024-02-29T13:53:36.050Z,19.60
2024-02-29T13:56:05.147Z,18.17
2024-02-29T13:58:37.063Z,18.40
2024-02-29T14:01:09.449Z,16.27
2024-02-29T14:03:39.472Z,18.30
2024-02-29T14:06:08.548Z,17.43
2024-02-29T14:08:38.175Z,17.47
2024-02-29T14:11:07.042Z,17.07
2024-02-29T14:13:40.314Z,17.20
2024-02-29T14:16:10.099Z,15.23
2024-02-29T14:18:39.063Z,15.47
2024-02-29T14:21:08.622Z,15.60
2024-02-29T14:23:37.477Z,15.23
2024-02-29T14:26:06.651Z,14.90
2024-02-29T14:28:39.850Z,16.50
2024-02-29T14:31:10.147Z,15.53
2024-02-29T14:33:40.521Z,14.03
2024-02-29T14:36:11.560Z,16.17
2024-02-29T14:38:40.740Z,14.50
2024-02-29T14:41:10.082Z,15.53
2024-02-29T14:43:40.626Z,15.40
2024-02-29T14:46:09.640Z,16.33
2024-02-29T14:48:38.632Z,18.70
2024-02-29T14:51:07.625Z,17.47
2024-02-29T14:53:36.476Z,15.60
2024-02-29T14:56:06.829Z,16.63
2024-02-29T14:58:35.942Z,16.23
2024-02-29T15:01:06.572Z,16.70
2024-02-29T15:03:37.137Z,16.20
2024-02-29T15:06:06.785Z,16.00
2024-02-29T15:08:37.764Z,16.13
2024-02-29T15:11:06.891Z,15.17
2024-02-29T15:13:35.750Z,16.70
2024-02-29T15:16:06.131Z,16.00
2024-02-29T15:18:36.665Z,14.53
2024-02-29T15:21:05.685Z,15.00
2024-02-29T15:23:35.017Z,14.57
2024-02-29T15:26:10.485Z,14.27
2024-02-29T15:28:41.541Z,13.87
2024-02-29T15:31:11.907Z,13.60
2024-02-29T15:33:40.628Z,14.03
2024-02-29T15:36:09.747Z,14.93
2024-02-29T15:38:38.275Z,16.33
2024-02-29T15:41:07.276Z,17.53
2024-02-29T15:43:36.225Z,15.97
2024-02-29T15:46:05.617Z,14.73
2024-02-29T15:48:36.915Z,14.40
2024-02-29T15:51:06.644Z,14.17
2024-02-29T15:53:35.396Z,14.87
2024-02-29T15:56:05.262Z,13.83
2024-02-29T15:58:34.634Z,14.33
2024-02-29T16:01:03.751Z,14.17
2024-02-29T16:03:32.616Z,14.30
2024-02-29T16:06:02.663Z,14.90
2024-02-29T16:08:31.502Z,14.57
2024-02-29T16:11:00.730Z,14.03
2024-02-29T16:13:29.740Z,14.00
2024-02-29T16:15:58.993Z,15.27
2024-02-29T16:18:30.434Z,14.20
2024-02-29T16:20:59.417Z,14.37
2024-02-29T16:23:29.541Z,13.93
2024-02-29T16:25:58.408Z,14.10
2024-02-29T16:28:29.398Z,14.13
2024-02-29T16:30:58.224Z,14.97
2024-02-29T16:33:27.738Z,15.67
2024-02-29T16:35:56.545Z,14.40
2024-02-29T16:38:25.450Z,15.53
2024-02-29T16:40:57.168Z,14.43
2024-02-29T16:43:28.340Z,14.27
2024-02-29T16:45:57.466Z,15.37
2024-02-29T16:48:26.517Z,15.00
2024-02-29T16:50:57.651Z,15.30
2024-02-29T16:53:26.207Z,14.63
2024-02-29T16:55:56.128Z,15.70
2024-02-29T16:58:25.255Z,16.03
2024-02-29T17:00:56.281Z,15.07
2024-02-29T17:03:26.644Z,15.30
2024-02-29T17:05:55.510Z,16.40
2024-02-29T17:08:24.815Z,15.73
2024-02-29T17:10:53.973Z,16.53
2024-02-29T17:13:25.155Z,16.93
2024-02-29T17:15:54.420Z,14.63
2024-02-29T17:18:25.758Z,15.50
2024-02-29T17:20:55.277Z,16.97
2024-02-29T17:23:23.984Z,16.37
2024-02-29T17:25:53.718Z,15.53
2024-02-29T17:28:24.403Z,15.67
2024-02-29T17:30:53.180Z,15.40
2024-02-29T17:33:24.380Z,15.53
2024-02-29T17:35:52.983Z,15.63
2024-02-29T17:38:22.040Z,16.30
2024-02-29T17:40:50.586Z,15.03
2024-02-29T17:43:19.410Z,16.10
2024-02-29T17:45:49.620Z,16.50
2024-02-29T17:48:18.778Z,16.17
2024-02-29T17:50:50.040Z,17.17
2024-02-29T17:53:18.690Z,17.13
2024-02-29T17:55:47.519Z,18.57
2024-02-29T17:58:16.628Z,17.50
2024-02-29T18:00:45.546Z,17.07
2024-02-29T18:03:15.639Z,16.93
2024-02-29T18:05:44.647Z,16.80
2024-02-29T18:08:14.356Z,17.37
2024-02-29T18:10:43.066Z,16.67
2024-02-29T18:13:11.758Z,17.80
2024-02-29T18:15:40.265Z,16.43
2024-02-29T18:18:09.602Z,16.43
2024-02-29T18:20:39.596Z,17.00
2024-02-29T18:23:08.962Z,16.80
2024-02-29T18:25:37.530Z,17.43
2024-02-29T18:28:06.637Z,17.37
2024-02-29T18:30:35.270Z,19.10
2024-02-29T18:33:03.934Z,26.53
2024-02-29T18:35:32.961Z,26.63
2024-02-29T18:38:02.917Z,22.37
2024-02-29T18:40:31.612Z,19.60
2024-02-29T18:43:00.228Z,19.73
2024-02-29T18:45:28.795Z,19.60
2024-02-29T18:47:57.364Z,19.27
2024-02-29T18:50:26.154Z,18.83
2024-02-29T18:52:54.791Z,20.63
2024-02-29T18:55:25.131Z,18.77
2024-02-29T18:57:54.141Z,19.10
2024-02-29T19:00:23.015Z,20.57
2024-02-29T19:02:51.545Z,21.50
2024-02-29T19:05:20.162Z,20.13
2024-02-29T19:07:48.611Z,19.40
2024-02-29T19:10:17.263Z,19.87
2024-02-29T19:12:48.237Z,20.73
2024-02-29T19:15:16.926Z,20.63
2024-02-29T19:17:45.629Z,21.37
2024-02-29T19:20:14.950Z,20.17
2024-02-29T19:22:43.760Z,21.63
2024-02-29T19:25:12.355Z,20.67
2024-02-29T19:27:42.415Z,21.80
2024-02-29T19:30:13.465Z,20.90
2024-02-29T19:32:41.963Z,23.00
2024-02-29T19:35:11.156Z,21.67
2024-02-29T19:37:39.721Z,22.60
2024-02-29T19:40:09.900Z,21.37
2024-02-29T19:42:41.792Z,22.47
2024-02-29T19:45:13.441Z,24.07
2024-02-29T19:47:43.947Z,22.70
2024-02-29T19:50:13.383Z,21.57
2024-02-29T19:52:42.403Z,20.83
2024-02-29T19:55:13.544Z,22.13
2024-02-29T19:57:42.708Z,21.03
2024-02-29T20:00:17.947Z,21.00
2024-02-29T20:02:47.201Z,22.77
2024-02-29T20:05:16.214Z,22.73
2024-02-29T20:07:44.868Z,22.37
2024-02-29T20:10:14.480Z,21.87
2024-02-29T20:12:43.551Z,22.57
2024-02-29T20:15:15.843Z,22.00
2024-02-29T20:17:44.820Z,21.93
2024-02-29T20:20:14.500Z,21.63
2024-02-29T20:22:43.376Z,21.33
2024-02-29T20:25:12.364Z,21.97
2024-02-29T20:27:51.693Z,21.00
2024-02-29T20:30:43.859Z,22.07
2024-02-29T20:33:16.588Z,21.73
2024-02-29T20:35:45.162Z,21.87
2024-02-29T20:38:14.985Z,22.40
2024-02-29T20:40:43.745Z,23.23
2024-02-29T20:43:12.279Z,22.90
2024-02-29T20:45:42.326Z,24.10
2024-02-29T20:48:11.132Z,24.47
2024-02-29T20:50:39.598Z,24.90
2024-02-29T20:53:08.203Z,23.70
2024-02-29T20:55:37.081Z,24.77
2024-02-29T20:58:06.206Z,22.80
2024-02-29T21:00:35.701Z,23.23
2024-02-29T21:03:07.627Z,24.20
2024-02-29T21:05:36.243Z,22.70
2024-02-29T21:08:05.024Z,22.60
2024-02-29T21:10:34.277Z,24.13
2024-02-29T21:13:03.028Z,23.80
2024-02-29T21:15:30.711Z,22.47
2024-02-29T21:17:59.301Z,23.80
2024-02-29T21:20:29.207Z,24.13
2024-02-29T21:22:58.071Z,24.63
2024-02-29T21:25:30.439Z,22.10
2024-02-29T21:27:59.481Z,24.10
2024-02-29T21:30:31.925Z,22.73
2024-02-29T21:33:00.758Z,23.97
2024-02-29T21:35:32.397Z,24.37
2024-02-29T21:38:01.209Z,23.17
2024-02-29T21:40:29.953Z,22.93
2024-02-29T21:42:58.782Z,23.63
2024-02-29T21:45:27.772Z,23.73
2024-02-29T21:47:56.622Z,23.87
2024-02-29T21:50:25.226Z,23.70
2024-02-29T21:52:55.131Z,23.57
2024-02-29T21:55:26.601Z,24.23
2024-02-29T21:57:55.605Z,24.80
2024-02-29T22:00:24.284Z,24.57
2024-02-29T22:02:53.142Z,25.00
2024-02-29T22:05:22.522Z,24.63
2024-02-29T22:07:51.294Z,24.03
2024-02-29T22:10:21.558Z,23.30
2024-02-29T22:12:50.285Z,24.20
2024-02-29T22:15:18.880Z,24.70
2024-02-29T22:17:47.417Z,25.20
2024-02-29T22:20:16.164Z,24.50
2024-02-29T22:22:44.798Z,24.40
2024-02-29T22:25:18.628Z,24.83
2024-02-29T22:27:48.681Z,23.60
2024-02-29T22:30:19.781Z,24.87
2024-02-29T22:32:48.686Z,24.17
2024-02-29T22:35:19.206Z,24.10
2024-02-29T22:37:48.217Z,23.70
2024-02-29T22:40:17.720Z,22.63
2024-02-29T22:42:47.836Z,23.10
2024-02-29T22:45:16.580Z,22.77
2024-02-29T22:47:45.603Z,23.00
2024-02-29T22:50:14.185Z,23.03
2024-02-29T22:52:43.580Z,23.70
2024-02-29T22:55:14.302Z,23.63
2024-02-29T22:57:42.848Z,24.33
2024-02-29T23:00:26.644Z,24.47
2024-02-29T23:02:55.137Z,22.73
2024-02-29T23:05:24.178Z,23.20
2024-02-29T23:07:54.295Z,24.10
2024-02-29T23:10:22.952Z,24.27
2024-02-29T23:12:52.291Z,23.20
2024-02-29T23:15:22.435Z,24.80
2024-02-29T23:17:56.028Z,25.23
2024-02-29T23:20:25.430Z,23.77
2024-02-29T23:22:54.576Z,24.13
2024-02-29T23:25:25.302Z,24.50
2024-02-29T23:27:54.469Z,23.07
2024-02-29T23:30:24.677Z,23.90
2024-02-29T23:32:53.814Z,24.23
2024-02-29T23:35:22.874Z,23.23
2024-02-29T23:37:51.613Z,24.43
2024-02-29T23:40:20.305Z,25.30
2024-02-29T23:42:49.182Z,25.23
2024-02-29T23:45:18.023Z,25.53
2024-02-29T23:47:47.970Z,25.47
2024-02-29T23:50:16.958Z,25.57
2024-02-29T23:52:45.417Z,27.60
2024-02-29T23:55:14.129Z,28.70
2024-02-29T23:57:42.940Z,27.40
